sensor_id;sensor_type;location;lat;lon;timestamp;pressure;altitude;pressure_sealevel;temperature;humidity
57048;BME280;42934;54.294;18.598;2023-01-30T00:00:13;99790.41;;;2.24;86.38
57048;BME280;42934;54.294;18.598;2023-01-30T00:03:04;99784.34;;;2.25;86.79
57048;BME280;42934;54.294;18.598;2023-01-30T00:05:33;99777.53;;;2.18;87.14
57048;BME280;42934;54.294;18.598;2023-01-30T00:08:03;99770.63;;;2.18;86.41
57048;BME280;42934;54.294;18.598;2023-01-30T00:10:33;99768.03;;;2.18;87.08
57048;BME280;42934;54.294;18.598;2023-01-30T00:13:02;99772.38;;;2.18;86.60
57048;BME280;42934;54.294;18.598;2023-01-30T00:15:31;99760.22;;;2.20;86.48
57048;BME280;42934;54.294;18.598;2023-01-30T00:18:00;99751.59;;;2.19;86.55
57048;BME280;42934;54.294;18.598;2023-01-30T00:20:31;99741.28;;;2.16;86.51
57048;BME280;42934;54.294;18.598;2023-01-30T00:23:00;99755.06;;;2.20;87.07
57048;BME280;42934;54.294;18.598;2023-01-30T00:25:29;99743.00;;;2.19;87.06
57048;BME280;42934;54.294;18.598;2023-01-30T00:28:00;99731.78;;;2.18;86.42
57048;BME280;42934;54.294;18.598;2023-01-30T00:30:29;99727.44;;;2.19;86.41
57048;BME280;42934;54.294;18.598;2023-01-30T00:32:59;99724.88;;;2.17;86.21
57048;BME280;42934;54.294;18.598;2023-01-30T00:35:28;99716.25;;;2.18;86.07
57048;BME280;42934;54.294;18.598;2023-01-30T00:37:59;99708.44;;;2.20;86.55
57048;BME280;42934;54.294;18.598;2023-01-30T00:40:29;99703.28;;;2.17;85.85
57048;BME280;42934;54.294;18.598;2023-01-30T00:42:59;99691.25;;;2.16;86.71
57048;BME280;42934;54.294;18.598;2023-01-30T00:45:46;99677.50;;;2.11;86.75
57048;BME280;42934;54.294;18.598;2023-01-30T00:48:34;99675.75;;;2.11;86.71
57048;BME280;42934;54.294;18.598;2023-01-30T00:51:03;99670.66;;;2.07;86.64
57048;BME280;42934;54.294;18.598;2023-01-30T00:53:34;99664.63;;;2.06;86.77
57048;BME280;42934;54.294;18.598;2023-01-30T00:56:03;99657.72;;;2.07;86.91
57048;BME280;42934;54.294;18.598;2023-01-30T00:58:32;99685.31;;;2.08;86.15
57048;BME280;42934;54.294;18.598;2023-01-30T01:01:02;99648.22;;;2.05;86.22
57048;BME280;42934;54.294;18.598;2023-01-30T01:03:32;99641.28;;;2.09;86.98
57048;BME280;42934;54.294;18.598;2023-01-30T01:06:01;99635.22;;;2.09;86.69
57048;BME280;42934;54.294;18.598;2023-01-30T01:08:30;99611.06;;;2.10;86.17
57048;BME280;42934;54.294;18.598;2023-01-30T01:11:01;99609.31;;;2.10;86.13
57048;BME280;42934;54.294;18.598;2023-01-30T01:13:30;99613.66;;;2.08;86.58
57048;BME280;42934;54.294;18.598;2023-01-30T01:15:59;99594.72;;;2.06;86.71
57048;BME280;42934;54.294;18.598;2023-01-30T01:18:29;99573.97;;;2.09;86.55
57048;BME280;42934;54.294;18.598;2023-01-30T01:20:58;99566.16;;;2.11;86.16
57048;BME280;42934;54.294;18.598;2023-01-30T01:23:27;99564.44;;;2.10;86.39
57048;BME280;42934;54.294;18.598;2023-01-30T01:26:02;99568.72;;;2.12;86.83
57048;BME280;42934;54.294;18.598;2023-01-30T01:28:31;99551.44;;;2.13;86.14
57048;BME280;42934;54.294;18.598;2023-01-30T01:31:05;99547.13;;;2.15;86.54
57048;BME280;42934;54.294;18.598;2023-01-30T01:33:35;99541.09;;;2.13;86.58
57048;BME280;42934;54.294;18.598;2023-01-30T01:36:04;99536.75;;;2.13;86.33
57048;BME280;42934;54.294;18.598;2023-01-30T01:38:34;99530.75;;;2.11;86.26
57048;BME280;42934;54.294;18.598;2023-01-30T01:41:05;99526.47;;;2.10;86.67
57048;BME280;42934;54.294;18.598;2023-01-30T01:43:36;99516.09;;;2.10;86.22
57048;BME280;42934;54.294;18.598;2023-01-30T01:46:11;99504.00;;;2.11;86.10
57048;BME280;42934;54.294;18.598;2023-01-30T01:48:45;99509.16;;;2.12;86.41
57048;BME280;42934;54.294;18.598;2023-01-30T01:51:18;99496.22;;;2.11;86.50
57048;BME280;42934;54.294;18.598;2023-01-30T01:53:54;99487.63;;;2.10;86.08
57048;BME280;42934;54.294;18.598;2023-01-30T01:56:26;99469.53;;;2.07;86.14
57048;BME280;42934;54.294;18.598;2023-01-30T01:58:59;99477.25;;;2.10;86.40
57048;BME280;42934;54.294;18.598;2023-01-30T02:01:29;99455.72;;;2.08;86.66
57048;BME280;42934;54.294;18.598;2023-01-30T02:04:03;99448.84;;;2.05;86.50
57048;BME280;42934;54.294;18.598;2023-01-30T02:06:37;99445.47;;;2.02;86.61
57048;BME280;42934;54.294;18.598;2023-01-30T02:09:09;99441.06;;;2.05;86.08
57048;BME280;42934;54.294;18.598;2023-01-30T02:11:43;99432.47;;;2.05;86.21
57048;BME280;42934;54.294;18.598;2023-01-30T02:14:14;99422.97;;;2.05;86.43
57048;BME280;42934;54.294;18.598;2023-01-30T02:16:46;99429.88;;;2.07;86.64
57048;BME280;42934;54.294;18.598;2023-01-30T02:19:24;99425.53;;;2.07;85.91
57048;BME280;42934;54.294;18.598;2023-01-30T02:22:20;99413.47;;;2.06;86.38
57048;BME280;42934;54.294;18.598;2023-01-30T02:31:26;99401.50;;;2.00;86.31
57048;BME280;42934;54.294;18.598;2023-01-30T02:34:22;99405.78;;;2.00;86.56
57048;BME280;42934;54.294;18.598;2023-01-30T02:37:02;99392.00;;;2.01;86.05
57048;BME280;42934;54.294;18.598;2023-01-30T02:39:42;99380.78;;;2.00;86.41
57048;BME280;42934;54.294;18.598;2023-01-30T02:42:18;99387.66;;;2.00;86.46
57048;BME280;42934;54.294;18.598;2023-01-30T02:44:57;99384.19;;;2.02;85.99
57048;BME280;42934;54.294;18.598;2023-01-30T02:47:35;99386.75;;;2.02;86.15
57048;BME280;42934;54.294;18.598;2023-01-30T02:50:11;99388.56;;;2.00;86.40
57048;BME280;42934;54.294;18.598;2023-01-30T02:52:42;99367.78;;;2.02;86.52
57048;BME280;42934;54.294;18.598;2023-01-30T02:55:18;99374.72;;;2.01;86.02
57048;BME280;42934;54.294;18.598;2023-01-30T02:57:49;99359.19;;;2.01;86.14
57048;BME280;42934;54.294;18.598;2023-01-30T03:00:32;99365.22;;;2.02;86.72
57048;BME280;42934;54.294;18.598;2023-01-30T03:03:26;99350.56;;;2.01;86.19
57048;BME280;42934;54.294;18.598;2023-01-30T03:06:28;99329.03;;;1.99;86.82
57048;BME280;42934;54.294;18.598;2023-01-30T03:09:08;99335.00;;;2.02;86.31
57048;BME280;42934;54.294;18.598;2023-01-30T03:11:46;99330.72;;;2.01;86.11
57048;BME280;42934;54.294;18.598;2023-01-30T03:14:20;99328.97;;;2.02;86.30
57048;BME280;42934;54.294;18.598;2023-01-30T03:16:54;99311.75;;;1.99;86.58
57048;BME280;42934;54.294;18.598;2023-01-30T03:19:27;99302.25;;;2.00;86.92
57048;BME280;42934;54.294;18.598;2023-01-30T03:21:59;99289.31;;;2.00;86.67
57048;BME280;42934;54.294;18.598;2023-01-30T03:24:29;99279.91;;;1.96;86.18
57048;BME280;42934;54.294;18.598;2023-01-30T03:27:00;99275.63;;;1.93;86.92
57048;BME280;42934;54.294;18.598;2023-01-30T03:29:31;99262.75;;;1.90;86.38
57048;BME280;42934;54.294;18.598;2023-01-30T03:32:00;99260.16;;;1.92;87.04
57048;BME280;42934;54.294;18.598;2023-01-30T03:34:31;99252.34;;;1.93;86.65
57048;BME280;42934;54.294;18.598;2023-01-30T03:37:00;99247.22;;;1.90;86.52
57048;BME280;42934;54.294;18.598;2023-01-30T03:39:33;99241.13;;;1.93;87.00
57048;BME280;42934;54.294;18.598;2023-01-30T03:42:05;99233.44;;;1.90;86.61
57048;BME280;42934;54.294;18.598;2023-01-30T03:44:34;99235.06;;;1.94;86.45
57048;BME280;42934;54.294;18.598;2023-01-30T03:47:03;99226.53;;;1.90;86.31
57048;BME280;42934;54.294;18.598;2023-01-30T03:49:34;99215.31;;;1.90;86.93
57048;BME280;42934;54.294;18.598;2023-01-30T03:52:03;99213.63;;;1.89;86.24
57048;BME280;42934;54.294;18.598;2023-01-30T03:54:33;99216.16;;;1.90;86.45
57048;BME280;42934;54.294;18.598;2023-01-30T03:57:03;99206.66;;;1.91;86.05
57048;BME280;42934;54.294;18.598;2023-01-30T03:59:33;99202.38;;;1.90;86.42
57048;BME280;42934;54.294;18.598;2023-01-30T04:02:07;99202.47;;;1.85;86.41
57048;BME280;42934;54.294;18.598;2023-01-30T04:04:37;99192.97;;;1.86;86.20
57048;BME280;42934;54.294;18.598;2023-01-30T04:07:09;99189.59;;;1.82;86.45
57048;BME280;42934;54.294;18.598;2023-01-30T04:09:40;99186.94;;;1.85;86.25
57048;BME280;42934;54.294;18.598;2023-01-30T04:12:09;99181.81;;;1.84;86.40
57048;BME280;42934;54.294;18.598;2023-01-30T04:14:46;99163.78;;;1.79;86.11
57048;BME280;42934;54.294;18.598;2023-01-30T04:17:32;99173.25;;;1.80;86.16
57048;BME280;42934;54.294;18.598;2023-01-30T04:20:26;99155.94;;;1.82;86.21
57048;BME280;42934;54.294;18.598;2023-01-30T04:22:56;99160.28;;;1.81;86.76
57048;BME280;42934;54.294;18.598;2023-01-30T04:25:27;99152.50;;;1.81;86.59
57048;BME280;42934;54.294;18.598;2023-01-30T04:27:56;99136.13;;;1.81;86.17
57048;BME280;42934;54.294;18.598;2023-01-30T04:30:29;99141.28;;;1.83;86.87
57048;BME280;42934;54.294;18.598;2023-01-30T04:33:17;99124.88;;;1.84;86.72
57048;BME280;42934;54.294;18.598;2023-01-30T04:35:53;99126.63;;;1.83;87.00
57048;BME280;42934;54.294;18.598;2023-01-30T04:38:23;99125.72;;;1.84;86.89
57048;BME280;42934;54.294;18.598;2023-01-30T04:40:54;99123.19;;;1.83;86.46
57048;BME280;42934;54.294;18.598;2023-01-30T04:43:26;99123.19;;;1.81;86.30
57048;BME280;42934;54.294;18.598;2023-01-30T04:46:02;99110.31;;;1.79;86.87
57048;BME280;42934;54.294;18.598;2023-01-30T04:48:32;99103.41;;;1.78;87.02
57048;BME280;42934;54.294;18.598;2023-01-30T04:51:04;99099.19;;;1.74;86.73
57048;BME280;42934;54.294;18.598;2023-01-30T04:53:35;99089.72;;;1.73;87.24
57048;BME280;42934;54.294;18.598;2023-01-30T04:56:05;99086.28;;;1.73;86.67
57048;BME280;42934;54.294;18.598;2023-01-30T04:58:34;99083.75;;;1.71;87.18
57048;BME280;42934;54.294;18.598;2023-01-30T05:01:14;99072.47;;;1.74;86.80
57048;BME280;42934;54.294;18.598;2023-01-30T05:03:44;99069.00;;;1.75;87.52
57048;BME280;42934;54.294;18.598;2023-01-30T05:06:14;99062.91;;;1.77;86.77
57048;BME280;42934;54.294;18.598;2023-01-30T05:08:44;99061.16;;;1.78;87.16
57048;BME280;42934;54.294;18.598;2023-01-30T05:11:16;99050.81;;;1.78;87.54
57048;BME280;42934;54.294;18.598;2023-01-30T05:13:45;99039.63;;;1.76;86.86
57048;BME280;42934;54.294;18.598;2023-01-30T05:16:15;99036.19;;;1.75;87.72
57048;BME280;42934;54.294;18.598;2023-01-30T05:18:44;99034.44;;;1.77;87.34
57048;BME280;42934;54.294;18.598;2023-01-30T05:21:17;99032.78;;;1.75;87.00
57048;BME280;42934;54.294;18.598;2023-01-30T05:23:46;99031.06;;;1.74;87.26
57048;BME280;42934;54.294;18.598;2023-01-30T05:26:15;99023.25;;;1.77;87.83
57048;BME280;42934;54.294;18.598;2023-01-30T05:28:49;99006.91;;;1.75;87.54
57048;BME280;42934;54.294;18.598;2023-01-30T05:31:18;99001.78;;;1.72;87.98
57048;BME280;42934;54.294;18.598;2023-01-30T05:33:49;99001.72;;;1.75;87.56
57048;BME280;42934;54.294;18.598;2023-01-30T05:36:22;98995.72;;;1.73;87.79
57048;BME280;42934;54.294;18.598;2023-01-30T05:38:51;98988.84;;;1.72;88.04
57048;BME280;42934;54.294;18.598;2023-01-30T05:41:20;98995.78;;;1.71;87.47
57048;BME280;42934;54.294;18.598;2023-01-30T05:43:50;98970.75;;;1.72;87.54
57048;BME280;42934;54.294;18.598;2023-01-30T05:46:19;98969.84;;;1.73;87.55
57048;BME280;42934;54.294;18.598;2023-01-30T05:48:48;98973.34;;;1.70;87.88
57048;BME280;42934;54.294;18.598;2023-01-30T05:51:21;98968.09;;;1.73;87.35
57048;BME280;42934;54.294;18.598;2023-01-30T05:53:51;98975.91;;;1.72;87.40
57048;BME280;42934;54.294;18.598;2023-01-30T05:56:20;98962.09;;;1.73;87.21
57048;BME280;42934;54.294;18.598;2023-01-30T05:58:51;98960.34;;;1.73;87.44
57048;BME280;42934;54.294;18.598;2023-01-30T06:01:21;98961.38;;;1.66;87.05
57048;BME280;42934;54.294;18.598;2023-01-30T06:03:50;98952.78;;;1.66;87.35
57048;BME280;42934;54.294;18.598;2023-01-30T06:06:21;98960.50;;;1.67;87.46
57048;BME280;42934;54.294;18.598;2023-01-30T06:08:52;98948.44;;;1.68;87.26
57048;BME280;42934;54.294;18.598;2023-01-30T06:11:23;98934.66;;;1.66;87.58
57048;BME280;42934;54.294;18.598;2023-01-30T06:13:52;98939.00;;;1.65;87.79
57048;BME280;42934;54.294;18.598;2023-01-30T06:16:21;98930.34;;;1.66;87.34
57048;BME280;42934;54.294;18.598;2023-01-30T06:18:50;98933.78;;;1.67;87.20
57048;BME280;42934;54.294;18.598;2023-01-30T06:21:21;98924.31;;;1.66;87.16
57048;BME280;42934;54.294;18.598;2023-01-30T06:23:49;98926.00;;;1.67;87.86
57048;BME280;42934;54.294;18.598;2023-01-30T06:26:19;98932.00;;;1.69;87.58
57048;BME280;42934;54.294;18.598;2023-01-30T06:28:48;98933.75;;;1.68;87.72
57048;BME280;42934;54.294;18.598;2023-01-30T06:31:17;98925.94;;;1.70;88.01
57048;BME280;42934;54.294;18.598;2023-01-30T06:33:46;98926.72;;;1.73;87.97
57048;BME280;42934;54.294;18.598;2023-01-30T06:36:16;98919.81;;;1.74;87.93
57048;BME280;42934;54.294;18.598;2023-01-30T06:38:46;98912.06;;;1.74;87.22
57048;BME280;42934;54.294;18.598;2023-01-30T06:41:15;98915.41;;;1.77;87.25
57048;BME280;42934;54.294;18.598;2023-01-30T06:43:44;98905.91;;;1.78;87.34
57048;BME280;42934;54.294;18.598;2023-01-30T06:46:14;98905.94;;;1.76;88.06
57048;BME280;42934;54.294;18.598;2023-01-30T06:48:43;98898.06;;;1.81;87.94
57048;BME280;42934;54.294;18.598;2023-01-30T06:51:12;98892.00;;;1.82;87.19
57048;BME280;42934;54.294;18.598;2023-01-30T06:53:41;98896.31;;;1.81;87.17
57048;BME280;42934;54.294;18.598;2023-01-30T06:56:11;98892.00;;;1.82;87.20
57048;BME280;42934;54.294;18.598;2023-01-30T06:58:40;98880.88;;;1.78;87.02
57048;BME280;42934;54.294;18.598;2023-01-30T07:01:10;98884.38;;;1.77;87.38
57048;BME280;42934;54.294;18.598;2023-01-30T07:03:39;98886.88;;;1.80;87.71
57048;BME280;42934;54.294;18.598;2023-01-30T07:06:08;98882.50;;;1.83;87.44
57048;BME280;42934;54.294;18.598;2023-01-30T07:08:39;98891.03;;;1.86;87.15
57048;BME280;42934;54.294;18.598;2023-01-30T07:11:12;98883.34;;;1.83;87.23
57048;BME280;42934;54.294;18.598;2023-01-30T07:13:41;98885.94;;;1.83;87.35
57048;BME280;42934;54.294;18.598;2023-01-30T07:16:10;98886.88;;;1.80;87.34
57048;BME280;42934;54.294;18.598;2023-01-30T07:18:39;98881.69;;;1.80;87.73
57048;BME280;42934;54.294;18.598;2023-01-30T07:21:08;98902.41;;;1.80;87.25
57048;BME280;42934;54.294;18.598;2023-01-30T07:23:37;98886.03;;;1.80;87.34
57048;BME280;42934;54.294;18.598;2023-01-30T07:26:06;98878.28;;;1.78;87.89
57048;BME280;42934;54.294;18.598;2023-01-30T07:28:36;98879.09;;;1.80;88.11
57048;BME280;42934;54.294;18.598;2023-01-30T07:31:06;98874.75;;;1.83;87.67
57048;BME280;42934;54.294;18.598;2023-01-30T07:33:35;98866.94;;;1.84;87.87
57048;BME280;42934;54.294;18.598;2023-01-30T07:36:05;98881.63;;;1.84;87.44
57048;BME280;42934;54.294;18.598;2023-01-30T07:38:34;98883.22;;;1.88;87.46
57048;BME280;42934;54.294;18.598;2023-01-30T07:41:03;98874.53;;;1.90;87.42
57048;BME280;42934;54.294;18.598;2023-01-30T07:43:32;98865.03;;;1.91;87.77
57048;BME280;42934;54.294;18.598;2023-01-30T07:46:03;98875.38;;;1.91;87.50
57048;BME280;42934;54.294;18.598;2023-01-30T07:48:32;98878.88;;;1.90;88.02
57048;BME280;42934;54.294;18.598;2023-01-30T07:51:02;98871.88;;;1.93;87.99
57048;BME280;42934;54.294;18.598;2023-01-30T07:53:31;98876.09;;;1.97;87.62
57048;BME280;42934;54.294;18.598;2023-01-30T07:56:04;98893.31;;;1.98;87.47
57048;BME280;42934;54.294;18.598;2023-01-30T07:58:33;98895.91;;;1.98;87.40
57048;BME280;42934;54.294;18.598;2023-01-30T08:01:05;98903.66;;;1.98;88.18
57048;BME280;42934;54.294;18.598;2023-01-30T08:03:34;98890.63;;;2.03;87.51
57048;BME280;42934;54.294;18.598;2023-01-30T08:06:03;98875.88;;;2.05;87.80
57048;BME280;42934;54.294;18.598;2023-01-30T08:08:33;98877.59;;;2.06;88.06
57048;BME280;42934;54.294;18.598;2023-01-30T08:11:04;98874.91;;;2.09;87.86
57048;BME280;42934;54.294;18.598;2023-01-30T08:13:33;98879.13;;;2.12;87.79
57048;BME280;42934;54.294;18.598;2023-01-30T08:16:05;98875.63;;;2.14;87.67
57048;BME280;42934;54.294;18.598;2023-01-30T08:18:35;98866.97;;;2.15;87.60
57048;BME280;42934;54.294;18.598;2023-01-30T08:21:05;98869.50;;;2.18;87.94
57048;BME280;42934;54.294;18.598;2023-01-30T08:23:35;98866.91;;;2.18;87.51
57048;BME280;42934;54.294;18.598;2023-01-30T08:26:04;98858.22;;;2.19;87.72
57048;BME280;42934;54.294;18.598;2023-01-30T08:28:34;98865.88;;;2.24;87.84
57048;BME280;42934;54.294;18.598;2023-01-30T08:31:09;98871.81;;;2.27;87.45
57048;BME280;42934;54.294;18.598;2023-01-30T08:33:39;98857.09;;;2.30;87.01
57048;BME280;42934;54.294;18.598;2023-01-30T08:36:09;98862.28;;;2.30;87.78
57048;BME280;42934;54.294;18.598;2023-01-30T08:38:37;98863.97;;;2.31;87.79
57048;BME280;42934;54.294;18.598;2023-01-30T08:41:07;98861.38;;;2.31;87.90
57048;BME280;42934;54.294;18.598;2023-01-30T08:43:36;98855.25;;;2.33;87.64
57048;BME280;42934;54.294;18.598;2023-01-30T08:46:07;98862.13;;;2.34;87.51
57048;BME280;42934;54.294;18.598;2023-01-30T08:48:36;98850.03;;;2.35;87.41
57048;BME280;42934;54.294;18.598;2023-01-30T08:51:17;98843.91;;;2.37;87.29
57048;BME280;42934;54.294;18.598;2023-01-30T08:53:46;98845.56;;;2.40;87.28
57048;BME280;42934;54.294;18.598;2023-01-30T08:56:15;98830.94;;;2.39;87.79
57048;BME280;42934;54.294;18.598;2023-01-30T08:58:45;98830.03;;;2.40;87.44
57048;BME280;42934;54.294;18.598;2023-01-30T09:01:18;98843.81;;;2.40;88.06
57048;BME280;42934;54.294;18.598;2023-01-30T09:03:47;98836.88;;;2.42;87.95
57048;BME280;42934;54.294;18.598;2023-01-30T09:06:17;98829.03;;;2.44;88.03
57048;BME280;42934;54.294;18.598;2023-01-30T09:08:46;98813.38;;;2.48;87.71
57048;BME280;42934;54.294;18.598;2023-01-30T09:11:15;98827.22;;;2.47;87.90
57048;BME280;42934;54.294;18.598;2023-01-30T09:13:45;98809.00;;;2.50;87.82
57048;BME280;42934;54.294;18.598;2023-01-30T09:16:18;98812.44;;;2.51;87.71
57048;BME280;42934;54.294;18.598;2023-01-30T09:18:47;98818.47;;;2.52;88.36
57048;BME280;42934;54.294;18.598;2023-01-30T09:21:16;98800.13;;;2.59;88.14
57048;BME280;42934;54.294;18.598;2023-01-30T09:23:46;98801.63;;;2.66;88.38
57048;BME280;42934;54.294;18.598;2023-01-30T09:26:16;98790.94;;;2.77;87.92
57048;BME280;42934;54.294;18.598;2023-01-30T09:28:46;98808.63;;;2.91;87.84
57048;BME280;42934;54.294;18.598;2023-01-30T09:31:17;98800.63;;;2.99;87.86
57048;BME280;42934;54.294;18.598;2023-01-30T09:33:46;98795.19;;;3.06;87.58
57048;BME280;42934;54.294;18.598;2023-01-30T09:36:16;98786.31;;;3.13;87.43
57048;BME280;42934;54.294;18.598;2023-01-30T09:38:45;98770.66;;;3.16;87.69
57048;BME280;42934;54.294;18.598;2023-01-30T09:41:37;98772.25;;;3.21;87.18
57048;BME280;42934;54.294;18.598;2023-01-30T09:44:24;98772.91;;;3.27;87.44
57048;BME280;42934;54.294;18.598;2023-01-30T09:47:05;98777.09;;;3.31;87.11
57048;BME280;42934;54.294;18.598;2023-01-30T09:49:42;98764.75;;;3.38;87.25
57048;BME280;42934;54.294;18.598;2023-01-30T09:52:22;98759.53;;;3.39;86.75
57048;BME280;42934;54.294;18.598;2023-01-30T09:54:59;98768.03;;;3.43;86.90
57048;BME280;42934;54.294;18.598;2023-01-30T09:57:30;98775.63;;;3.49;86.66
57048;BME280;42934;54.294;18.598;2023-01-30T10:00:04;98771.16;;;3.53;86.51
57048;BME280;42934;54.294;18.598;2023-01-30T10:02:50;98775.41;;;3.55;86.38
57048;BME280;42934;54.294;18.598;2023-01-30T10:05:21;98778.69;;;3.60;86.51
57048;BME280;42934;54.294;18.598;2023-01-30T10:08:15;98790.66;;;3.64;86.00
57048;BME280;42934;54.294;18.598;2023-01-30T10:10:51;98778.47;;;3.67;86.15
57048;BME280;42934;54.294;18.598;2023-01-30T10:13:53;98781.66;;;3.75;85.91
57048;BME280;42934;54.294;18.598;2023-01-30T10:16:29;98776.25;;;3.81;85.92
57048;BME280;42934;54.294;18.598;2023-01-30T10:19:21;98761.41;;;3.84;85.57
57048;BME280;42934;54.294;18.598;2023-01-30T10:22:09;98755.34;;;3.85;85.51
57048;BME280;42934;54.294;18.598;2023-01-30T10:24:49;98760.22;;;3.93;85.47
57048;BME280;42934;54.294;18.598;2023-01-30T10:27:22;98753.13;;;3.98;85.25
57048;BME280;42934;54.294;18.598;2023-01-30T10:29:55;98764.03;;;4.08;85.22
57048;BME280;42934;54.294;18.598;2023-01-30T10:32:28;98763.03;;;4.12;85.12
57048;BME280;42934;54.294;18.598;2023-01-30T10:35:08;98771.38;;;4.20;85.03
57048;BME280;42934;54.294;18.598;2023-01-30T10:37:45;98766.94;;;4.24;85.03
57048;BME280;42934;54.294;18.598;2023-01-30T10:40:20;98770.47;;;4.21;85.24
57048;BME280;42934;54.294;18.598;2023-01-30T10:42:59;98770.28;;;4.26;85.10
57048;BME280;42934;54.294;18.598;2023-01-30T10:45:37;98769.78;;;4.16;84.96
57048;BME280;42934;54.294;18.598;2023-01-30T10:48:24;98769.06;;;4.13;85.25
57048;BME280;42934;54.294;18.598;2023-01-30T10:51:22;98765.06;;;4.04;85.16
57048;BME280;42934;54.294;18.598;2023-01-30T10:53:55;98763.53;;;3.98;85.19
57048;BME280;42934;54.294;18.598;2023-01-30T10:56:32;98754.09;;;3.96;85.33
57048;BME280;42934;54.294;18.598;2023-01-30T10:59:15;98755.22;;;3.89;85.23
57048;BME280;42934;54.294;18.598;2023-01-30T11:01:56;98752.84;;;3.82;85.34
57048;BME280;42934;54.294;18.598;2023-01-30T11:04:30;98750.41;;;3.78;85.43
57048;BME280;42934;54.294;18.598;2023-01-30T11:07:06;98757.38;;;3.76;85.46
57048;BME280;42934;54.294;18.598;2023-01-30T11:09:42;98753.16;;;3.73;85.63
57048;BME280;42934;54.294;18.598;2023-01-30T11:12:13;98739.88;;;3.82;85.62
57048;BME280;42934;54.294;18.598;2023-01-30T11:14:51;98731.75;;;3.92;85.54
57048;BME280;42934;54.294;18.598;2023-01-30T11:17:27;98719.25;;;4.01;85.08
57048;BME280;42934;54.294;18.598;2023-01-30T11:20:03;98718.13;;;4.08;85.46
57048;BME280;42934;54.294;18.598;2023-01-30T11:22:36;98704.53;;;4.91;85.01
57048;BME280;42934;54.294;18.598;2023-01-30T11:25:12;98708.66;;;5.98;82.41
57048;BME280;42934;54.294;18.598;2023-01-30T11:27:44;98707.88;;;5.96;82.63
57048;BME280;42934;54.294;18.598;2023-01-30T11:30:23;98701.13;;;6.10;82.12
57048;BME280;42934;54.294;18.598;2023-01-30T11:33:09;98692.19;;;6.71;80.59
57048;BME280;42934;54.294;18.598;2023-01-30T11:35:43;98695.59;;;6.54;79.54
57048;BME280;42934;54.294;18.598;2023-01-30T11:38:25;98689.22;;;6.05;80.37
57048;BME280;42934;54.294;18.598;2023-01-30T11:41:05;98679.38;;;5.72;81.62
57048;BME280;42934;54.294;18.598;2023-01-30T11:43:36;98690.25;;;5.61;82.33
57048;BME280;42934;54.294;18.598;2023-01-30T11:46:07;98682.81;;;5.73;81.99
57048;BME280;42934;54.294;18.598;2023-01-30T11:48:44;98679.28;;;5.94;81.69
57048;BME280;42934;54.294;18.598;2023-01-30T11:51:34;98680.16;;;5.95;81.19
57048;BME280;42934;54.294;18.598;2023-01-30T11:54:11;98673.53;;;6.06;80.34
57048;BME280;42934;54.294;18.598;2023-01-30T11:56:48;98670.22;;;5.82;80.66
57048;BME280;42934;54.294;18.598;2023-01-30T11:59:23;98651.25;;;5.80;80.51
57048;BME280;42934;54.294;18.598;2023-01-30T12:02:03;98642.22;;;5.68;80.74
57048;BME280;42934;54.294;18.598;2023-01-30T12:04:34;98640.75;;;5.82;80.29
57048;BME280;42934;54.294;18.598;2023-01-30T12:07:05;98640.00;;;5.99;80.46
57048;BME280;42934;54.294;18.598;2023-01-30T12:09:38;98636.31;;;6.03;80.44
57048;BME280;42934;54.294;18.598;2023-01-30T12:12:30;98636.13;;;6.07;80.25
57048;BME280;42934;54.294;18.598;2023-01-30T12:15:12;98617.25;;;6.21;79.27
57048;BME280;42934;54.294;18.598;2023-01-30T12:17:49;98619.03;;;6.38;79.07
57048;BME280;42934;54.294;18.598;2023-01-30T12:20:27;98629.75;;;6.32;78.94
57048;BME280;42934;54.294;18.598;2023-01-30T12:23:07;98628.16;;;6.47;79.03
57048;BME280;42934;54.294;18.598;2023-01-30T12:25:47;98632.19;;;6.54;78.67
57048;BME280;42934;54.294;18.598;2023-01-30T12:28:23;98638.00;;;6.42;77.60
57048;BME280;42934;54.294;18.598;2023-01-30T12:30:57;98631.03;;;6.23;77.83
57048;BME280;42934;54.294;18.598;2023-01-30T12:33:32;98644.16;;;6.03;78.74
57048;BME280;42934;54.294;18.598;2023-01-30T12:36:08;98655.59;;;5.80;77.82
57048;BME280;42934;54.294;18.598;2023-01-30T12:38:53;98645.81;;;5.66;78.79
57048;BME280;42934;54.294;18.598;2023-01-30T12:41:43;98649.78;;;5.54;79.75
57048;BME280;42934;54.294;18.598;2023-01-30T12:44:25;98650.25;;;5.43;79.56
57048;BME280;42934;54.294;18.598;2023-01-30T12:47:08;98657.19;;;5.44;79.42
57048;BME280;42934;54.294;18.598;2023-01-30T12:49:58;98651.63;;;5.52;79.82
57048;BME280;42934;54.294;18.598;2023-01-30T12:52:46;98651.22;;;5.41;79.71
57048;BME280;42934;54.294;18.598;2023-01-30T12:55:25;98634.13;;;5.35;80.13
57048;BME280;42934;54.294;18.598;2023-01-30T12:58:02;98638.03;;;5.45;79.54
57048;BME280;42934;54.294;18.598;2023-01-30T13:00:46;98643.81;;;5.52;79.91
57048;BME280;42934;54.294;18.598;2023-01-30T13:03:26;98630.81;;;5.71;78.86
57048;BME280;42934;54.294;18.598;2023-01-30T13:06:06;98633.75;;;5.82;79.64
57048;BME280;42934;54.294;18.598;2023-01-30T13:18:45;98630.88;;;5.51;79.02
57048;BME280;42934;54.294;18.598;2023-01-30T13:21:20;98631.16;;;5.44;79.18
57048;BME280;42934;54.294;18.598;2023-01-30T13:24:03;98637.59;;;5.36;79.10
57048;BME280;42934;54.294;18.598;2023-01-30T13:26:40;98630.13;;;5.28;79.16
57048;BME280;42934;54.294;18.598;2023-01-30T13:32:36;98629.22;;;5.09;79.66
57048;BME280;42934;54.294;18.598;2023-01-30T13:35:16;98624.34;;;5.01;80.48
57048;BME280;42934;54.294;18.598;2023-01-30T13:37:48;98630.69;;;4.94;80.26
57048;BME280;42934;54.294;18.598;2023-01-30T13:40:20;98630.97;;;4.88;80.29
57048;BME280;42934;54.294;18.598;2023-01-30T13:42:52;98623.38;;;4.83;80.32
57048;BME280;42934;54.294;18.598;2023-01-30T13:45:27;98623.50;;;4.80;80.92
57048;BME280;42934;54.294;18.598;2023-01-30T13:48:08;98617.50;;;4.78;80.47
57048;BME280;42934;54.294;18.598;2023-01-30T13:50:59;98605.47;;;4.75;80.60
57048;BME280;42934;54.294;18.598;2023-01-30T13:53:40;98613.66;;;4.66;80.89